KR-0464 weather

Oryukdo SK Apartments Heliports
Busan, Busan Gwang'yeogsi, South Korea

Public forecast

Using degrees Celsius for public forecast. Weather courtesy of forecast.io.

Closest aviation weather report (METAR) to Oryukdo SK Apartments Heliports

Closest report is Gimhae International Airport, 10.0 nm (18.5 km) WNW. Retrieved 2020/01/24 04:00 UTC (28 minutes ago):

RKPK 240400Z 32005KT 9000 FEW030 FEW200 12/03 Q1027

Closest aviation forecast (TAF) to Oryukdo SK Apartments Heliports

Closest forecast is Gimhae International Airport, 10.0 nm (18.5 km) WNW. Retrieved 2020-01-24 00:00 UTC (4 hours ago):

TAF RKPK 232300Z 2400/2506 36006KT 4800 BR SCT030 BKN200 TX11/2406Z TN02/2421Z BECMG 2401/2402 9999 NSW